createdAt,value
2022-11-23T00:02:09.061Z,9.7
2022-11-23T00:04:35.656Z,9.7
2022-11-23T00:07:02.368Z,9.7
2022-11-23T00:09:29.039Z,9.7
2022-11-23T00:11:55.726Z,9.7
2022-11-23T00:14:22.462Z,9.7
2022-11-23T00:16:47.626Z,9.7
2022-11-23T00:19:14.328Z,9.7
2022-11-23T00:21:41.073Z,9.7
2022-11-23T00:24:07.819Z,9.7
2022-11-23T00:26:34.460Z,9.7
2022-11-23T00:29:01.063Z,9.7
2022-11-23T00:31:27.870Z,9.7
2022-11-23T00:33:54.547Z,9.7
2022-11-23T00:36:21.123Z,9.7
2022-11-23T00:38:47.787Z,9.7
2022-11-23T00:41:14.462Z,9.7
2022-11-23T00:43:41.237Z,9.6
2022-11-23T00:46:07.971Z,9.7
2022-11-23T00:48:34.518Z,9.6
2022-11-23T00:51:01.260Z,9.6
2022-11-23T00:53:27.906Z,9.6
2022-11-23T00:55:53.113Z,9.6
2022-11-23T00:58:19.798Z,9.7
2022-11-23T01:00:46.480Z,9.7
2022-11-23T01:03:13.180Z,9.7
2022-11-23T01:05:39.888Z,9.6
2022-11-23T01:08:06.616Z,9.6
2022-11-23T01:10:33.224Z,9.6
2022-11-23T01:12:59.915Z,9.6
2022-11-23T01:15:26.594Z,9.6
2022-11-23T01:17:53.276Z,9.6
2022-11-23T01:20:19.953Z,9.6
2022-11-23T01:22:46.687Z,9.6
2022-11-23T01:25:13.337Z,9.6
2022-11-23T01:27:40.016Z,9.6
2022-11-23T01:30:05.233Z,9.6
2022-11-23T01:32:31.921Z,9.6
2022-11-23T01:34:58.724Z,9.6
2022-11-23T01:37:25.457Z,9.6
2022-11-23T01:39:52.063Z,9.6
2022-11-23T01:42:18.730Z,9.6
2022-11-23T01:44:45.388Z,9.6
2022-11-23T01:47:12.109Z,9.6
2022-11-23T01:49:38.898Z,9.6
2022-11-23T01:52:05.497Z,9.6
2022-11-23T01:54:32.243Z,9.6
2022-11-23T01:56:58.884Z,9.6
2022-11-23T01:59:25.562Z,9.6
2022-11-23T02:01:52.303Z,9.6
2022-11-23T02:04:18.934Z,9.6
2022-11-23T02:06:45.708Z,9.6
2022-11-23T02:09:10.857Z,9.6
2022-11-23T02:11:37.488Z,9.6
2022-11-23T02:14:04.279Z,9.6
2022-11-23T02:16:30.881Z,9.6
2022-11-23T02:18:57.474Z,9.6
2022-11-23T02:21:24.258Z,9.6
2022-11-23T02:23:50.828Z,9.6
2022-11-23T02:26:17.700Z,9.6
2022-11-23T02:28:44.225Z,9.6
2022-11-23T02:31:11.027Z,9.6
2022-11-23T02:33:37.748Z,9.6
2022-11-23T02:36:04.390Z,9.6
2022-11-23T02:38:31.090Z,9.6
2022-11-23T02:40:57.765Z,9.6
2022-11-23T02:43:22.937Z,9.6
2022-11-23T02:45:49.649Z,9.6
2022-11-23T02:48:16.324Z,9.6
2022-11-23T02:50:43.019Z,9.6
2022-11-23T02:53:09.715Z,9.6
2022-11-23T02:55:36.404Z,9.6
2022-11-23T02:58:03.050Z,9.6
2022-11-23T03:00:29.763Z,9.6
2022-11-23T03:02:56.388Z,9.6
2022-11-23T03:05:23.067Z,9.6
2022-11-23T03:07:49.743Z,9.6
2022-11-23T03:10:16.470Z,9.5
2022-11-23T03:12:43.073Z,9.6
2022-11-23T03:15:09.814Z,9.5
2022-11-23T03:17:36.538Z,9.5
2022-11-23T03:20:03.192Z,9.5
2022-11-23T03:22:28.516Z,9.5
2022-11-23T03:24:55.096Z,9.5
2022-11-23T03:32:15.249Z,9.5
2022-11-23T03:34:41.988Z,9.5
2022-11-23T03:37:08.552Z,9.5
2022-11-23T03:39:35.259Z,9.5
2022-11-23T03:42:01.903Z,9.5
2022-11-23T03:44:28.673Z,9.5
2022-11-23T03:46:55.257Z,9.5
2022-11-23T03:49:22.049Z,9.4
2022-11-23T03:51:48.590Z,9.5
2022-11-23T03:54:15.341Z,9.5
2022-11-23T03:56:40.576Z,9.4
2022-11-23T03:59:07.262Z,9.4
2022-11-23T04:01:33.853Z,9.5
2022-11-23T04:04:00.539Z,9.5
2022-11-23T04:06:27.314Z,9.4
2022-11-23T04:08:53.906Z,9.4
2022-11-23T04:11:20.750Z,9.4
2022-11-23T04:13:47.324Z,9.4
2022-11-23T04:18:40.662Z,9.4
2022-11-23T04:21:05.968Z,9.4
2022-11-23T04:23:31.148Z,9.4
2022-11-23T04:25:57.879Z,9.4
2022-11-23T04:28:24.474Z,9.4
2022-11-23T04:30:51.210Z,9.4
2022-11-23T04:33:17.948Z,9.4
2022-11-23T04:35:44.531Z,9.4
2022-11-23T04:38:11.343Z,9.4
2022-11-23T04:40:37.994Z,9.4
2022-11-23T04:43:04.653Z,9.4
2022-11-23T04:45:31.273Z,9.4
2022-11-23T04:47:56.571Z,9.4
2022-11-23T04:50:21.844Z,9.4
2022-11-23T04:52:48.499Z,9.4
2022-11-23T04:55:15.111Z,9.4
2022-11-23T04:57:41.793Z,9.4
2022-11-23T05:00:08.491Z,9.4
2022-11-23T05:05:01.887Z,9.4
2022-11-23T05:07:28.615Z,9.4
2022-11-23T05:09:55.227Z,9.4
2022-11-23T05:12:22.043Z,9.4
2022-11-23T05:14:48.617Z,9.4
2022-11-23T05:17:15.369Z,9.4
2022-11-23T05:19:42.096Z,9.4
2022-11-23T05:22:08.789Z,9.4
2022-11-23T05:24:33.960Z,9.4
2022-11-23T05:27:00.665Z,9.4
2022-11-23T05:29:27.255Z,9.3
2022-11-23T05:31:53.966Z,9.4
2022-11-23T05:34:19.307Z,9.4
2022-11-23T05:36:45.966Z,9.4
2022-11-23T05:39:12.650Z,9.3
2022-11-23T05:41:39.371Z,9.3
2022-11-23T05:44:05.977Z,9.3
2022-11-23T05:46:32.800Z,9.3
2022-11-23T05:48:59.275Z,9.3
2022-11-23T05:51:26.072Z,9.3
2022-11-23T05:53:52.728Z,9.3
2022-11-23T05:56:19.439Z,9.3
2022-11-23T05:58:46.161Z,9.3
2022-11-23T06:01:12.732Z,9.3
2022-11-23T06:03:39.462Z,9.3
2022-11-23T06:06:04.650Z,9.3
2022-11-23T06:08:31.339Z,9.3
2022-11-23T06:13:24.693Z,9.3
2022-11-23T06:15:51.351Z,9.3
2022-11-23T06:18:18.145Z,9.3
2022-11-23T06:20:44.741Z,9.3
2022-11-23T06:23:11.524Z,9.3
2022-11-23T06:25:38.202Z,9.3
2022-11-23T06:28:04.809Z,9.3
2022-11-23T06:30:31.544Z,9.3
2022-11-23T06:32:58.216Z,9.3
2022-11-23T06:35:24.922Z,9.2
2022-11-23T06:37:50.078Z,9.3
2022-11-23T06:40:16.779Z,9.2
2022-11-23T06:42:43.420Z,9.2
2022-11-23T06:45:10.249Z,9.2
2022-11-23T06:47:36.870Z,9.3
2022-11-23T06:50:03.623Z,9.2
2022-11-23T06:52:30.230Z,9.3
2022-11-23T06:54:56.830Z,9.2
2022-11-23T06:57:23.565Z,9.2
2022-11-23T06:59:50.319Z,9.3
2022-11-23T07:02:17.053Z,9.2
2022-11-23T07:04:43.697Z,9.2
2022-11-23T07:07:10.345Z,9.2
2022-11-23T07:09:37.032Z,9.2
2022-11-23T07:12:03.641Z,9.2
2022-11-23T07:14:28.877Z,9.2
2022-11-23T07:16:55.602Z,9.2
2022-11-23T07:19:22.292Z,9.2
2022-11-23T07:21:48.994Z,9.2
2022-11-23T07:24:15.674Z,9.2
2022-11-23T07:29:09.072Z,9.2
2022-11-23T07:31:35.766Z,9.2
2022-11-23T07:34:02.347Z,9.2
2022-11-23T07:36:29.021Z,9.2
2022-11-23T07:38:55.773Z,9.2
2022-11-23T07:41:22.388Z,9.2
2022-11-23T07:43:49.128Z,9.2
2022-11-23T07:46:14.295Z,9.2
2022-11-23T07:48:41.077Z,9.2
2022-11-23T07:51:07.811Z,9.2
2022-11-23T07:53:34.409Z,9.2
2022-11-23T07:56:01.178Z,9.2
2022-11-23T07:58:27.902Z,9.2
2022-11-23T08:00:54.599Z,9.2
2022-11-23T08:03:21.253Z,9.3
2022-11-23T08:05:47.973Z,9.3
2022-11-23T08:08:14.646Z,9.3
2022-11-23T08:10:41.246Z,9.3
2022-11-23T08:13:07.996Z,9.4
2022-11-23T08:15:34.678Z,9.4
2022-11-23T08:18:01.219Z,9.4
2022-11-23T08:20:26.550Z,9.4
2022-11-23T08:22:53.205Z,9.4
2022-11-23T08:25:19.802Z,9.4
2022-11-23T08:27:46.598Z,9.4
2022-11-23T08:30:13.229Z,9.4
2022-11-23T08:32:39.941Z,9.4
2022-11-23T08:35:06.543Z,9.4
2022-11-23T08:37:33.223Z,9.4
2022-11-23T08:40:00.000Z,9.4
2022-11-23T08:42:26.621Z,9.4
2022-11-23T08:44:53.480Z,9.4
2022-11-23T08:47:19.968Z,9.4
2022-11-23T08:49:46.732Z,9.4
2022-11-23T08:52:11.961Z,9.4
2022-11-23T08:54:38.557Z,9.4
2022-11-23T08:57:05.386Z,9.4
2022-11-23T08:59:32.079Z,9.4
2022-11-23T09:01:58.737Z,9.6
2022-11-23T09:04:25.416Z,9.6
2022-11-23T09:06:52.147Z,9.6
2022-11-23T09:09:18.783Z,9.7
2022-11-23T09:11:45.427Z,9.7
2022-11-23T09:14:12.123Z,9.6
2022-11-23T09:16:38.717Z,9.7
2022-11-23T09:19:05.401Z,9.7
2022-11-23T09:21:32.096Z,9.7
2022-11-23T09:23:58.917Z,9.7
2022-11-23T09:26:24.173Z,9.8
2022-11-23T09:28:50.805Z,9.8
2022-11-23T09:31:17.467Z,9.8
2022-11-23T09:33:44.064Z,9.8
2022-11-23T09:36:10.750Z,9.8
2022-11-23T09:38:37.479Z,9.9
2022-11-23T09:41:04.181Z,9.9
2022-11-23T09:45:57.484Z,9.9
2022-11-23T09:48:24.252Z,9.9
2022-11-23T09:53:17.629Z,9.9
2022-11-23T09:55:44.223Z,10
2022-11-23T09:58:10.961Z,10
2022-11-23T10:00:37.752Z,10
2022-11-23T10:03:02.825Z,9.9
2022-11-23T10:05:29.647Z,9.8
2022-11-23T10:07:56.256Z,9.7
2022-11-23T10:10:22.865Z,9.7
2022-11-23T10:12:49.593Z,9.7
2022-11-23T10:15:16.391Z,9.6
2022-11-23T10:17:43.005Z,9.6
2022-11-23T10:20:09.681Z,9.6
2022-11-23T10:22:36.385Z,9.7
2022-11-23T10:25:03.109Z,9.7
2022-11-23T10:27:29.790Z,9.7
2022-11-23T10:29:56.416Z,9.7
2022-11-23T10:32:23.154Z,9.7
2022-11-23T10:34:49.844Z,9.8
2022-11-23T10:37:15.064Z,9.8
2022-11-23T10:42:08.313Z,9.8
2022-11-23T10:44:35.096Z,9.8
2022-11-23T10:47:01.691Z,9.8
2022-11-23T10:49:28.484Z,9.9
2022-11-23T10:51:55.099Z,9.9
2022-11-23T10:54:21.860Z,9.9
2022-11-23T10:56:48.425Z,9.9
2022-11-23T10:59:15.130Z,9.9
2022-11-23T11:01:41.801Z,9.9
2022-11-23T11:04:08.536Z,9.9
2022-11-23T11:06:35.227Z,9.9
2022-11-23T11:09:01.841Z,9.8
2022-11-23T11:11:27.065Z,9.8
2022-11-23T11:13:53.780Z,9.7
2022-11-23T11:16:20.447Z,9.7
2022-11-23T11:18:47.178Z,9.7
2022-11-23T11:21:13.805Z,9.7
2022-11-23T11:23:40.483Z,9.7
2022-11-23T11:26:07.259Z,9.7
2022-11-23T11:28:33.944Z,9.6
2022-11-23T11:31:00.558Z,9.6
2022-11-23T11:33:27.241Z,9.6
2022-11-23T11:35:53.983Z,9.6
2022-11-23T11:38:20.726Z,9.6
2022-11-23T11:40:47.329Z,9.6
2022-11-23T11:43:12.555Z,9.6
2022-11-23T11:45:39.273Z,9.6
2022-11-23T11:48:05.869Z,9.6
2022-11-23T11:50:32.566Z,9.6
2022-11-23T11:52:59.257Z,9.6
2022-11-23T11:55:26.020Z,9.6
2022-11-23T11:57:52.689Z,9.6
2022-11-23T12:02:45.998Z,9.6
2022-11-23T12:05:12.674Z,9.6
2022-11-23T12:07:39.434Z,9.5
2022-11-23T12:10:06.050Z,9.5
2022-11-23T12:12:32.837Z,9.5
2022-11-23T12:14:57.973Z,9.6
2022-11-23T12:17:24.638Z,9.5
2022-11-23T12:19:51.541Z,9.5
2022-11-23T12:22:18.196Z,9.6
2022-11-23T12:24:44.794Z,9.5
2022-11-23T12:27:11.534Z,9.5
2022-11-23T12:29:38.156Z,9.5
2022-11-23T12:32:04.915Z,9.5
2022-11-23T12:34:31.431Z,9.5
2022-11-23T12:36:58.221Z,9.5
2022-11-23T12:39:24.793Z,9.5
2022-11-23T12:41:51.490Z,9.5
2022-11-23T12:44:18.201Z,9.5
2022-11-23T12:46:43.431Z,9.5
2022-11-23T12:49:10.143Z,9.5
2022-11-23T12:54:03.527Z,9.4
2022-11-23T12:56:30.241Z,9.4
2022-11-23T12:58:56.868Z,9.4
2022-11-23T13:01:23.543Z,9.5
2022-11-23T13:03:50.269Z,9.4
2022-11-23T13:06:16.893Z,9.4
2022-11-23T13:08:43.552Z,9.4
2022-11-23T13:11:10.423Z,9.4
2022-11-23T13:13:36.937Z,9.4
2022-11-23T13:16:03.683Z,9.4
2022-11-23T13:18:28.929Z,9.4
2022-11-23T13:20:55.718Z,9.4
2022-11-23T13:23:22.331Z,9.4
2022-11-23T13:25:49.012Z,9.4
2022-11-23T13:28:15.740Z,9.4
2022-11-23T13:30:42.255Z,9.4
2022-11-23T13:33:09.065Z,9.4
2022-11-23T13:35:35.772Z,9.4
2022-11-23T13:38:02.510Z,9.4
2022-11-23T13:42:55.664Z,9.4
2022-11-23T13:45:22.541Z,9.4
2022-11-23T13:47:47.758Z,9.4
2022-11-23T13:50:14.447Z,9.4
2022-11-23T13:52:41.053Z,9.4
2022-11-23T13:55:07.805Z,9.4
2022-11-23T13:57:34.498Z,9.4
2022-11-23T14:00:01.293Z,9.4
2022-11-23T14:02:27.778Z,9.4
2022-11-23T14:04:54.559Z,9.4
2022-11-23T14:07:21.194Z,9.4
2022-11-23T14:09:47.972Z,9.4
2022-11-23T14:12:14.639Z,9.4
2022-11-23T14:14:41.178Z,9.4
2022-11-23T14:17:07.868Z,9.4
2022-11-23T14:19:34.685Z,9.4
2022-11-23T14:22:01.296Z,9.4
2022-11-23T14:24:27.945Z,9.4
2022-11-23T14:29:19.788Z,9.4
2022-11-23T14:31:46.676Z,9.4
2022-11-23T14:34:13.309Z,9.4
2022-11-23T14:36:39.990Z,9.4
2022-11-23T14:39:06.767Z,9.4
2022-11-23T14:41:33.465Z,9.4
2022-11-23T14:44:00.124Z,9.4
2022-11-23T14:46:26.725Z,9.4
2022-11-23T14:48:53.412Z,9.4
2022-11-23T14:51:20.204Z,9.4
2022-11-23T14:53:46.839Z,9.4
2022-11-23T14:56:13.431Z,9.4
2022-11-23T14:58:38.727Z,9.4
2022-11-23T15:01:05.367Z,9.4
2022-11-23T15:03:32.121Z,9.4
2022-11-23T15:05:58.588Z,9.4
2022-11-23T15:08:25.430Z,9.4
2022-11-23T15:10:51.965Z,9.4
2022-11-23T15:13:18.813Z,9.4
2022-11-23T15:15:45.512Z,9.4
2022-11-23T15:18:12.195Z,9.4
2022-11-23T15:20:38.869Z,9.4
2022-11-23T15:23:05.572Z,9.4
2022-11-23T15:25:32.321Z,9.4
2022-11-23T15:27:58.920Z,9.4
2022-11-23T15:30:23.968Z,9.4
2022-11-23T15:32:50.662Z,9.4
2022-11-23T15:35:17.516Z,9.4
2022-11-23T15:37:44.202Z,9.4
2022-11-23T15:40:10.834Z,9.4
2022-11-23T15:45:04.192Z,9.4
2022-11-23T15:47:30.952Z,9.4
2022-11-23T15:49:57.585Z,9.4
2022-11-23T15:52:24.330Z,9.4
2022-11-23T15:54:51.009Z,9.4
2022-11-23T15:57:17.677Z,9.4
2022-11-23T15:59:44.413Z,9.4
2022-11-23T16:02:09.539Z,9.4
2022-11-23T16:04:36.088Z,9.4
2022-11-23T16:07:02.971Z,9.4
2022-11-23T16:09:29.610Z,9.4
2022-11-23T16:11:56.328Z,9.4
2022-11-23T16:14:22.836Z,9.4
2022-11-23T16:16:49.571Z,9.4
2022-11-23T16:19:16.341Z,9.4
2022-11-23T16:21:43.071Z,9.4
2022-11-23T16:24:09.752Z,9.4
2022-11-23T16:26:36.440Z,9.4
2022-11-23T16:29:03.126Z,9.5
2022-11-23T16:31:29.829Z,9.5
2022-11-23T16:33:54.846Z,9.4
2022-11-23T16:36:21.538Z,9.5
2022-11-23T16:38:48.445Z,9.5
2022-11-23T16:41:14.901Z,9.5
2022-11-23T16:43:41.761Z,9.4
2022-11-23T16:46:08.443Z,9.4
2022-11-23T16:48:35.107Z,9.5
2022-11-23T16:51:01.836Z,9.5
2022-11-23T16:53:28.510Z,9.5
2022-11-23T16:55:55.192Z,9.4
2022-11-23T16:58:21.903Z,9.5
2022-11-23T17:00:48.574Z,9.5
2022-11-23T17:03:15.308Z,9.5
2022-11-23T17:05:41.814Z,9.5
2022-11-23T17:08:07.129Z,9.5
2022-11-23T17:10:33.747Z,9.5
2022-11-23T17:15:27.227Z,9.5
2022-11-23T17:17:53.940Z,9.5
2022-11-23T17:20:20.537Z,9.5
2022-11-23T17:22:47.267Z,9.5
2022-11-23T17:25:13.764Z,9.5
2022-11-23T17:27:40.621Z,9.5
2022-11-23T17:30:07.146Z,9.6
2022-11-23T17:32:34.012Z,9.6
2022-11-23T17:35:00.656Z,9.8
2022-11-23T17:37:27.401Z,9.8
2022-11-23T17:39:53.919Z,9.9
2022-11-23T17:42:20.822Z,10
2022-11-23T17:44:47.412Z,10
2022-11-23T17:47:12.595Z,10.1
2022-11-23T17:49:39.319Z,10.1
2022-11-23T17:52:05.983Z,10.2
2022-11-23T17:54:32.643Z,10.2
2022-11-23T17:56:59.386Z,10.2
2022-11-23T17:59:26.051Z,10.3
2022-11-23T18:01:52.851Z,10.3
2022-11-23T18:04:19.352Z,10.4
2022-11-23T18:06:45.954Z,10.4
2022-11-23T18:09:12.723Z,10.4
2022-11-23T18:11:39.320Z,10.4
2022-11-23T18:14:06.041Z,10.4
2022-11-23T18:16:32.835Z,10.4
2022-11-23T18:18:59.508Z,10.5
2022-11-23T18:21:24.832Z,10.6
2022-11-23T18:23:51.265Z,10.6
2022-11-23T18:31:11.411Z,10.7
2022-11-23T18:33:38.078Z,10.7
2022-11-23T18:36:04.718Z,10.7
2022-11-23T18:38:31.387Z,10.7
2022-11-23T18:40:58.067Z,10.7
2022-11-23T18:43:24.752Z,10.7
2022-11-23T18:45:51.525Z,10.8
2022-11-23T18:48:18.241Z,10.9
2022-11-23T18:53:11.495Z,10.9
2022-11-23T18:55:38.174Z,10.8
2022-11-23T18:58:04.983Z,10.8
2022-11-23T19:00:30.184Z,10.8
2022-11-23T19:02:56.804Z,10.9
2022-11-23T19:05:22.117Z,10.8
2022-11-23T19:07:48.809Z,10.8
2022-11-23T19:10:15.389Z,10.7
2022-11-23T19:12:42.106Z,10.7
2022-11-23T19:17:35.446Z,10.8
2022-11-23T19:20:02.211Z,10.7
2022-11-23T19:22:28.817Z,10.7
2022-11-23T19:24:55.497Z,10.7
2022-11-23T19:27:22.202Z,10.6
2022-11-23T19:29:49.025Z,10.6
2022-11-23T19:32:15.551Z,10.6
2022-11-23T19:34:42.239Z,10.6
2022-11-23T19:37:08.924Z,10.5
2022-11-23T19:42:02.384Z,10.4
2022-11-23T19:46:54.244Z,10.4
2022-11-23T19:49:19.586Z,10.4
2022-11-23T19:54:12.927Z,10.3
2022-11-23T19:56:39.544Z,10.4
2022-11-23T19:59:05.002Z,10.3
2022-11-23T20:01:31.467Z,10.3
2022-11-23T20:03:58.207Z,10.3
2022-11-23T20:06:24.968Z,10.3
2022-11-23T20:08:51.634Z,10.2
2022-11-23T20:11:18.272Z,10.2
2022-11-23T20:13:44.951Z,10.2
2022-11-23T20:16:11.578Z,10.2
2022-11-23T20:18:36.941Z,10.2
2022-11-23T20:21:03.556Z,10.2
2022-11-23T20:23:30.230Z,10.2
2022-11-23T20:25:56.974Z,10.2
2022-11-23T20:28:22.110Z,10.2
2022-11-23T20:30:48.779Z,10.2
2022-11-23T20:33:15.453Z,10.2
2022-11-23T20:35:42.173Z,10.2
2022-11-23T20:38:08.831Z,10.2
2022-11-23T20:40:35.516Z,10.2
2022-11-23T20:45:28.891Z,10.1
2022-11-23T20:47:55.589Z,10.1
2022-11-23T20:52:49.084Z,10.1
2022-11-23T20:57:42.351Z,10.1
2022-11-23T21:00:08.993Z,10.1
2022-11-23T21:02:35.666Z,10.1
2022-11-23T21:07:27.727Z,10.1
2022-11-23T21:09:54.421Z,10.1
2022-11-23T21:12:21.056Z,10.1
2022-11-23T21:14:46.235Z,10.1
2022-11-23T21:17:11.678Z,10.1
2022-11-23T21:19:38.230Z,10.1
2022-11-23T21:29:25.070Z,10
2022-11-23T21:36:45.103Z,10
2022-11-23T21:39:11.608Z,10
2022-11-23T21:41:38.471Z,10
2022-11-23T21:44:05.193Z,10
2022-11-23T21:48:58.347Z,10
2022-11-23T21:51:25.167Z,10
2022-11-23T21:58:45.255Z,10
2022-11-23T22:06:03.868Z,9.9
2022-11-23T22:13:22.312Z,9.9
2022-11-23T22:15:47.580Z,9.9
2022-11-23T22:18:14.245Z,9.9
2022-11-23T22:20:40.933Z,9.9
2022-11-23T22:23:07.612Z,9.9
2022-11-23T22:25:34.286Z,9.9
2022-11-23T22:28:01.093Z,9.9
2022-11-23T22:30:27.664Z,9.9
2022-11-23T22:32:54.360Z,9.9
2022-11-23T22:35:21.029Z,9.9
2022-11-23T22:37:47.717Z,9.9
2022-11-23T22:40:14.395Z,9.9
2022-11-23T22:42:41.087Z,9.9
2022-11-23T22:47:34.459Z,9.9
2022-11-23T22:50:01.148Z,9.9
2022-11-23T22:52:26.452Z,9.9
2022-11-23T22:54:53.055Z,9.9
2022-11-23T22:57:19.731Z,9.9
2022-11-23T22:59:46.450Z,9.9
2022-11-23T23:02:13.115Z,9.9
2022-11-23T23:07:06.471Z,9.9
2022-11-23T23:09:33.161Z,9.9
2022-11-23T23:11:59.854Z,9.9
2022-11-23T23:14:26.538Z,9.9
2022-11-23T23:19:19.910Z,9.9
2022-11-23T23:21:46.598Z,9.9
2022-11-23T23:24:13.268Z,9.9
2022-11-23T23:26:38.493Z,9.9
2022-11-23T23:29:05.174Z,9.9
2022-11-23T23:33:58.549Z,9.9
2022-11-23T23:38:51.927Z,9.9
2022-11-23T23:41:18.606Z,9.9
2022-11-23T23:43:45.286Z,9.9
2022-11-23T23:46:11.971Z,9.9
2022-11-23T23:48:38.657Z,9.9
2022-11-23T23:51:05.347Z,9.9
2022-11-23T23:53:32.027Z,9.9
2022-11-23T23:55:58.717Z,9.9
2022-11-23T23:58:23.935Z,9.8
